Argyle's Hourly Summary for Tuesday, July 10, 2018
Hour Temp
(f)
RH
(%)
Solar Rad.
(MJ/m2)
Rainfall
(in)
Wind
(mph)
7/10/2018 12:00 AM 80 72 0 0 2.65
7/10/2018 1:00 AM 79 74 0 0 3.52
7/10/2018 2:00 AM 78 76 0 0 3.96
7/10/2018 3:00 AM 77 80 0 0 3.06
7/10/2018 4:00 AM 77 81 0 0 1.46
7/10/2018 5:00 AM 76 79 0 0 1.43
7/10/2018 6:00 AM 75 80 0 0 2.25
7/10/2018 7:00 AM 75 84 0.02 0 2.39
7/10/2018 8:00 AM 76 75 0.54 0 2.94
7/10/2018 9:00 AM 81 66 1.38 0 3.81
7/10/2018 10:00 AM 84 58 1.78 0 3.5
7/10/2018 11:00 AM 88 48 2.39 0 2.77
7/10/2018 12:00 PM 91 41 2.55 0 2.22
7/10/2018 1:00 PM 92 41 2.68 0 2.84
7/10/2018 2:00 PM 90 41 0.96 0 4.88
7/10/2018 3:00 PM 84 53 0.7 0 4.72
7/10/2018 4:00 PM 82 61 0.36 0 3.69
7/10/2018 5:00 PM 81 67 0.28 0 3.58
7/10/2018 6:00 PM 82 66 0.54 0 2.19
7/10/2018 7:00 PM 82 67 0.73 0 3.7
7/10/2018 8:00 PM 82 66 0.34 0 2.71
7/10/2018 9:00 PM 82 68 0.04 0 0.32
7/10/2018 10:00 PM 80 71 0 0 1.42
7/10/2018 11:00 PM 80 77 0 0 2.24
Data Summary 81 66 15.29 0.00 2.84